Terminal Aerodrome Forecast
Issued by NWS Sioux Falls, SD

Home | Current Version | Previous Version | Text Only | Print | Product List | Glossary On
Versions: 1 2 3 4 5 6 7 8 9 10 11 12 13 14 15 16 17 18 19
000
FTUS43 KFSD 191746 CCA
TAFSUX
TAF COR
KSUX 191746Z 1918/2018 15010KT 1SM BR OVC003
      TEMPO 1918/1920 1/2SM FG
     FM192000 15008KT 2SM BR OVC005
     FM192300 14007KT 5SM BR OVC005
     FM200300 13007KT 2SM -DZ BR OVC003
     FM200800 13007KT 1/2SM -DZ FG OVC003
     FM201600 14009KT 1SM BR OVC003=

USA.gov is the U.S. government's official web portal to all federal, state and local government web resources and services.